Time;durP1;ratioP1;P1;durP2;ratioP2;P2;SDS_P1;SDS_P2;PMS_P1;PMS_P2;Temp;Humidity;BMP_temperature;BMP_pressure;BME280_temperature;BME280_humidity;BME280_pressure;Samples;Min_cycle;Max_cycle;Signal;HPM_P1;HPM_P2
2022/08/18 00:08:36;;;;;;;12.57;11.57;;;20.80;99.90;;;;;;4805922;29;20442;-88
2022/08/18 00:11:38;;;;;;;10.70;9.83;;;20.70;99.90;;;;;;4902768;29;20512;-88
2022/08/18 00:18:07;;;;;;;11.53;10.63;;;20.60;99.90;;;;;;4910971;28;20441;-87
2022/08/18 00:20:41;;;;;;;10.60;9.57;;;20.40;99.90;;;;;;4991296;28;20473;-88
2022/08/18 01:55:39;;;;;;;9.37;8.53;;;20.60;99.90;;;;;;5057839;28;20430;-88
2022/08/18 02:15:17;;;;;;;9.57;8.67;;;20.60;99.90;;;;;;4981872;28;20490;-88
2022/08/18 02:18:01;;;;;;;11.83;10.87;;;20.50;99.90;;;;;;5029097;28;20432;-88
2022/08/18 02:27:20;;;;;;;10.13;9.07;;;20.50;99.90;;;;;;5029734;28;20871;-87
2022/08/18 03:05:35;;;;;;;11.50;10.50;;;20.40;99.90;;;;;;5008755;28;20524;-88
2022/08/18 03:08:35;;;;;;;11.83;10.90;;;20.40;99.90;;;;;;4954103;29;20468;-88
2022/08/18 03:23:41;;;;;;;8.53;7.83;;;20.50;99.90;;;;;;5042002;28;20461;-88
2022/08/18 03:26:19;;;;;;;9.27;8.40;;;20.50;99.90;;;;;;5032254;28;20450;-88
2022/08/18 03:39:22;;;;;;;9.70;8.90;;;20.60;99.90;;;;;;5020971;28;20430;-87
2022/08/18 03:45:00;;;;;;;9.13;7.67;;;20.70;99.90;;;;;;4963585;28;20580;-87
2022/08/18 03:48:15;;;;;;;9.33;8.07;;;20.60;99.90;;;;;;5024325;28;20513;-87
2022/08/18 04:05:02;;;;;;;9.07;8.27;;;20.40;99.90;;;;;;4902226;29;20456;-87
2022/08/18 04:56:14;;;;;;;13.33;12.07;;;20.50;99.90;;;;;;5085413;28;20466;-88
2022/08/18 04:59:44;;;;;;;13.80;12.47;;;20.50;99.90;;;;;;5094578;28;20427;-88
2022/08/18 05:37:52;;;;;;;15.03;13.60;;;22.60;99.90;;;;;;5055368;22;20497;-81
2022/08/18 05:40:23;;;;;;;16.43;14.83;;;22.60;99.90;;;;;;5025541;28;20430;-81
2022/08/18 05:42:49;;;;;;;17.57;15.73;;;22.50;99.90;;;;;;5022821;28;20815;-80
2022/08/18 05:45:18;;;;;;;15.37;13.77;;;22.40;99.90;;;;;;5020015;28;20453;-80
2022/08/18 05:47:45;;;;;;;16.60;15.13;;;22.40;99.90;;;;;;5029305;28;20501;-83
2022/08/18 05:50:16;;;;;;;15.83;14.33;;;22.50;99.90;;;;;;5012080;28;20447;-84
2022/08/18 05:52:56;;;;;;;16.27;14.30;;;22.80;99.90;;;;;;5003090;28;20502;-83
2022/08/18 05:58:16;;;;;;;14.70;13.47;;;23.30;99.90;;;;;;5013259;28;20823;-83
2022/08/18 06:00:47;;;;;;;15.53;13.87;;;23.30;99.90;;;;;;5006338;28;20440;-83
2022/08/18 06:03:20;;;;;;;16.17;14.77;;;23.20;99.90;;;;;;5006489;28;20442;-83
2022/08/18 06:05:52;;;;;;;14.60;13.23;;;23.00;99.90;;;;;;5002636;28;20443;-81
2022/08/18 06:08:25;;;;;;;15.27;13.77;;;22.80;99.90;;;;;;5009179;28;20482;-82
2022/08/18 06:10:53;;;;;;;14.23;13.03;;;22.90;99.90;;;;;;5003795;28;20471;-82
2022/08/18 06:13:20;;;;;;;14.00;12.60;;;23.30;99.90;;;;;;5001923;28;20979;-83
2022/08/18 06:15:54;;;;;;;13.50;12.30;;;23.60;99.90;;;;;;5004538;28;20451;-80
2022/08/18 06:18:36;;;;;;;16.43;14.87;;;24.00;99.90;;;;;;5014510;28;20460;-82
2022/08/18 06:21:26;;;;;;;14.80;13.30;;;24.20;99.90;;;;;;5003916;28;20443;-83
2022/08/18 06:24:06;;;;;;;12.80;11.70;;;24.40;99.90;;;;;;5002122;28;20918;-89
2022/08/18 06:26:40;;;;;;;14.23;12.93;;;24.20;99.90;;;;;;5001726;28;20450;-89
2022/08/18 06:29:23;;;;;;;13.83;12.53;;;24.00;99.90;;;;;;4999985;28;20498;-87
2022/08/18 06:32:01;;;;;;;13.00;12.00;;;24.20;99.90;;;;;;4997134;28;20535;-89
2022/08/18 06:34:39;;;;;;;13.43;12.17;;;24.50;99.90;;;;;;5003147;28;20450;-82
2022/08/18 06:37:12;;;;;;;13.13;11.93;;;24.80;99.90;;;;;;5002209;28;20914;-88
2022/08/18 06:39:48;;;;;;;12.80;11.73;;;24.80;99.90;;;;;;5001392;28;20471;-87
2022/08/18 06:42:20;;;;;;;13.03;11.77;;;24.50;99.90;;;;;;5007151;28;20449;-87
2022/08/18 06:44:50;;;;;;;14.03;12.60;;;24.40;99.90;;;;;;5002452;28;20458;-89
2022/08/18 06:47:32;;;;;;;14.13;12.53;;;24.20;99.90;;;;;;5016471;28;20565;-88
2022/08/18 06:50:05;;;;;;;14.37;12.90;;;24.20;99.90;;;;;;5007132;28;20442;-88
2022/08/18 06:52:34;;;;;;;13.93;12.70;;;24.10;99.90;;;;;;5018666;28;20443;-88
2022/08/18 06:55:06;;;;;;;13.17;12.07;;;24.10;99.90;;;;;;5013535;28;20447;-88
2022/08/18 06:57:36;;;;;;;14.23;12.70;;;24.00;99.90;;;;;;5002221;28;20467;-88
2022/08/18 07:00:10;;;;;;;15.23;13.73;;;24.20;99.90;;;;;;5003364;28;20443;-88
2022/08/18 07:02:51;;;;;;;14.13;12.57;;;24.30;99.90;;;;;;5014682;28;20441;-89
2022/08/18 07:05:22;;;;;;;14.10;12.60;;;24.20;99.90;;;;;;5017198;28;20442;-89
2022/08/18 07:08:09;;;;;;;12.73;11.53;;;24.10;99.90;;;;;;5014642;28;20476;-87
2022/08/18 07:10:39;;;;;;;13.07;11.67;;;23.80;99.90;;;;;;5024526;28;20451;-87
2022/08/18 07:13:18;;;;;;;13.60;12.40;;;23.70;99.90;;;;;;5021724;28;20917;-87
2022/08/18 07:15:47;;;;;;;11.53;10.43;;;23.80;99.90;;;;;;5015811;28;20439;-87
2022/08/18 07:18:16;;;;;;;13.27;12.17;;;23.80;99.90;;;;;;5019246;28;20467;-89
2022/08/18 07:20:45;;;;;;;13.27;12.10;;;23.80;99.90;;;;;;5021518;28;21035;-88
2022/08/18 07:23:24;;;;;;;12.53;11.53;;;23.60;99.90;;;;;;5004961;28;20458;-88
2022/08/18 07:26:01;;;;;;;12.57;11.47;;;23.70;99.90;;;;;;4998600;28;20929;-90
2022/08/18 07:28:31;;;;;;;15.53;11.23;;;23.90;99.90;;;;;;5005731;28;20485;-88
2022/08/18 07:31:23;;;;;;;14.10;12.80;;;23.80;99.90;;;;;;5006023;28;20444;-87
2022/08/18 07:33:55;;;;;;;14.00;11.77;;;24.00;99.90;;;;;;5002989;28;20454;-88
2022/08/18 07:36:27;;;;;;;12.83;11.73;;;24.00;99.90;;;;;;5006661;28;20455;-88
2022/08/18 07:38:58;;;;;;;13.83;12.57;;;24.00;99.90;;;;;;5006558;28;20438;-87
2022/08/18 07:41:34;;;;;;;12.80;11.70;;;23.90;99.90;;;;;;4998521;28;20439;-87
2022/08/18 07:44:15;;;;;;;13.50;12.30;;;23.70;99.90;;;;;;5014017;28;20418;-86
2022/08/18 07:46:48;;;;;;;14.20;13.00;;;23.40;99.90;;;;;;5017598;28;20458;-87
2022/08/18 07:49:20;;;;;;;14.57;13.17;;;23.00;99.90;;;;;;5004310;28;20511;-87
2022/08/18 07:51:49;;;;;;;14.50;13.20;;;22.60;99.90;;;;;;5005273;28;20444;-87
2022/08/18 07:54:27;;;;;;;15.33;13.83;;;22.50;99.90;;;;;;5009523;28;20431;-87
2022/08/18 07:57:02;;;;;;;13.47;12.20;;;22.30;99.90;;;;;;5022669;28;20452;-87
2022/08/18 07:59:36;;;;;;;14.80;13.50;;;22.30;99.90;;;;;;5018409;28;20444;-88
2022/08/18 08:02:20;;;;;;;14.20;12.70;;;22.40;99.90;;;;;;5005183;28;21692;-87
2022/08/18 08:04:54;;;;;;;15.07;12.97;;;22.40;99.90;;;;;;5021263;28;20434;-87
2022/08/18 08:07:25;;;;;;;13.37;12.03;;;22.50;99.90;;;;;;5016690;28;20507;-88
2022/08/18 08:10:03;;;;;;;12.80;11.37;;;22.50;99.90;;;;;;5020179;28;20474;-88
2022/08/18 08:12:45;;;;;;;13.17;11.90;;;22.50;99.90;;;;;;5015814;28;20451;-87
2022/08/18 08:15:17;;;;;;;14.20;12.80;;;22.60;99.90;;;;;;5027163;28;20442;-86
2022/08/18 08:17:55;;;;;;;13.10;11.77;;;22.70;99.90;;;;;;5017213;28;20470;-87
2022/08/18 08:20:27;;;;;;;13.53;12.23;;;22.70;99.90;;;;;;5010955;28;20450;-86
2022/08/18 08:23:08;;;;;;;13.87;12.57;;;22.80;99.90;;;;;;5033098;28;20423;-84
2022/08/18 08:25:43;;;;;;;15.83;12.80;;;22.80;99.90;;;;;;5028100;28;20448;-86
2022/08/18 08:28:23;;;;;;;13.33;12.07;;;22.80;99.90;;;;;;5030288;28;20529;-86
2022/08/18 08:31:01;;;;;;;14.70;13.27;;;22.80;99.90;;;;;;5035105;28;20418;-87
2022/08/18 08:33:33;;;;;;;13.33;12.10;;;22.80;99.90;;;;;;5018410;28;20449;-87
2022/08/18 08:36:05;;;;;;;14.80;13.43;;;22.80;99.90;;;;;;5012532;28;20439;-87
2022/08/18 08:38:43;;;;;;;12.87;11.70;;;22.80;99.90;;;;;;5009499;28;20472;-88
2022/08/18 08:41:13;;;;;;;11.93;10.83;;;23.00;99.90;;;;;;5013086;28;20450;-87
2022/08/18 08:43:45;;;;;;;13.73;12.30;;;23.30;99.90;;;;;;5014691;28;20442;-85
2022/08/18 08:46:16;;;;;;;12.73;11.30;;;23.50;99.90;;;;;;5025347;28;20424;-87
2022/08/18 08:48:49;;;;;;;13.93;11.27;;;23.90;99.90;;;;;;5022731;28;20490;-88
2022/08/18 08:51:31;;;;;;;10.40;9.40;;;24.20;99.90;;;;;;5021075;28;20830;-88
2022/08/18 08:54:03;;;;;;;9.73;8.83;;;24.60;99.90;;;;;;5004995;28;20443;-87
2022/08/18 08:56:35;;;;;;;9.90;9.00;;;24.70;99.90;;;;;;5009615;28;20446;-88
2022/08/18 08:59:08;;;;;;;9.60;8.70;;;25.00;99.90;;;;;;5014638;28;20458;-88
2022/08/18 09:02:08;;;;;;;8.50;7.80;;;25.20;99.50;;;;;;5018432;28;20479;-87
2022/08/18 09:04:55;;;;;;;8.43;7.80;;;25.40;98.70;;;;;;5039966;28;20465;-87
2022/08/18 09:07:44;;;;;;;10.03;7.67;;;26.00;97.20;;;;;;5024135;28;20475;-88
2022/08/18 09:10:44;;;;;;;8.50;7.87;;;26.20;95.80;;;;;;5023394;28;20497;-87
2022/08/18 09:13:59;;;;;;;10.17;9.37;;;26.40;95.20;;;;;;5011506;28;20458;-88
2022/08/18 09:16:41;;;;;;;10.07;9.13;;;26.90;94.60;;;;;;4979443;28;20459;-87
2022/08/18 09:19:33;;;;;;;8.87;8.07;;;28.40;91.80;;;;;;5013480;28;20826;-87
2022/08/18 09:22:04;;;;;;;9.63;8.83;;;29.10;89.20;;;;;;5004416;28;20479;-88
2022/08/18 09:24:39;;;;;;;9.50;8.60;;;29.30;85.80;;;;;;5001131;28;20443;-87
2022/08/18 09:27:23;;;;;;;9.37;8.60;;;29.70;84.20;;;;;;5010153;28;20465;-87
2022/08/18 09:29:53;;;;;;;10.80;9.90;;;29.10;83.10;;;;;;5015467;28;20491;-88
2022/08/18 09:32:48;;;;;;;9.70;8.70;;;28.60;85.30;;;;;;5007238;28;20927;-87
2022/08/18 09:35:40;;;;;;;9.57;8.77;;;29.00;84.90;;;;;;5035243;28;20436;-87
2022/08/18 09:44:08;;;;;;;9.60;8.60;;;31.80;74.50;;;;;;5007211;28;20506;-87
2022/08/18 09:47:05;;;;;;;9.43;8.40;;;32.50;69.50;;;;;;5002982;28;20538;-87
2022/08/18 09:49:48;;;;;;;10.57;9.77;;;33.70;67.10;;;;;;4945303;29;20563;-87
2022/08/18 09:52:55;;;;;;;9.60;8.90;;;34.80;61.70;;;;;;5007082;28;20459;-87
2022/08/18 09:55:57;;;;;;;8.93;8.23;;;35.70;56.50;;;;;;5021838;28;20501;-88
2022/08/18 09:58:51;;;;;;;9.27;8.67;;;35.60;56.20;;;;;;4937587;29;20488;-88
2022/08/18 10:01:42;;;;;;;9.47;8.70;;;36.20;54.60;;;;;;4933653;29;20471;-88
2022/08/18 10:04:29;;;;;;;9.70;9.00;;;35.40;54.50;;;;;;4982394;28;20949;-88
2022/08/18 10:07:16;;;;;;;9.57;8.87;;;34.80;55.10;;;;;;5017510;28;20451;-87
2022/08/18 10:09:52;;;;;;;9.47;8.87;;;35.50;54.50;;;;;;5026437;28;20501;-88
2022/08/18 10:12:39;;;;;;;8.87;8.00;;;36.00;53.90;;;;;;5012457;28;20457;-88
2022/08/18 10:15:30;;;;;;;9.27;8.67;;;36.80;53.40;;;;;;5027906;28;20440;-87
2022/08/18 10:18:09;;;;;;;10.10;9.17;;;38.00;50.70;;;;;;5027332;28;20440;-87
2022/08/18 10:20:46;;;;;;;8.37;7.67;;;38.70;48.90;;;;;;5030886;28;20445;-87
2022/08/18 10:23:57;;;;;;;8.77;8.17;;;39.00;47.90;;;;;;5034090;28;20442;-87
2022/08/18 10:27:07;;;;;;;8.97;8.37;;;38.20;48.50;;;;;;5022560;28;20449;-87
2022/08/18 10:29:49;;;;;;;9.63;8.90;;;39.10;46.80;;;;;;5008024;28;20486;-87
2022/08/18 10:32:44;;;;;;;10.53;9.93;;;38.60;46.90;;;;;;5013252;28;20980;-87
2022/08/18 10:35:54;;;;;;;8.60;8.10;;;38.30;46.80;;;;;;5031698;28;20452;-87
2022/08/18 10:38:47;;;;;;;8.63;8.03;;;38.90;46.10;;;;;;5026890;28;20490;-88
2022/08/18 10:41:24;;;;;;;9.20;8.60;;;38.40;47.00;;;;;;5025404;28;20474;-87
2022/08/18 10:43:52;;;;;;;10.20;9.43;;;39.00;46.10;;;;;;5008430;28;20446;-87
2022/08/18 10:46:24;;;;;;;9.17;8.37;;;37.90;45.90;;;;;;5005213;28;20454;-87
2022/08/18 10:49:04;;;;;;;8.97;8.30;;;38.30;47.40;;;;;;5012101;28;20486;-88
2022/08/18 10:51:53;;;;;;;8.40;7.90;;;39.60;45.00;;;;;;5014470;28;20437;-88
2022/08/18 10:54:30;;;;;;;9.93;9.23;;;40.40;42.50;;;;;;4994647;28;20426;-87
2022/08/18 10:57:06;;;;;;;9.07;8.40;;;40.50;41.90;;;;;;5029432;28;20466;-89
2022/08/18 10:59:41;;;;;;;9.87;9.07;;;40.00;43.30;;;;;;5003345;28;20458;-88
2022/08/18 11:02:43;;;;;;;9.47;8.87;;;40.50;42.30;;;;;;4998883;28;20950;-83
2022/08/18 11:05:13;;;;;;;9.07;8.47;;;41.40;41.10;;;;;;5005699;28;20447;-83
2022/08/18 11:07:42;;;;;;;9.30;8.60;;;41.70;39.90;;;;;;5004050;28;20467;-82
2022/08/18 11:10:35;;;;;;;8.90;8.30;;;41.50;40.00;;;;;;5002644;28;20538;-81
2022/08/18 11:13:10;;;;;;;9.00;8.30;;;41.50;39.20;;;;;;5001282;28;20451;-82
2022/08/18 11:15:47;;;;;;;10.20;9.50;;;40.50;40.40;;;;;;5011389;28;20445;-83
2022/08/18 11:18:31;;;;;;;9.90;9.20;;;39.20;42.60;;;;;;5012056;28;20464;-83
2022/08/18 11:21:22;;;;;;;10.07;9.17;;;38.20;44.20;;;;;;5011762;28;20458;-82
2022/08/18 11:24:02;;;;;;;10.97;10.10;;;37.00;45.70;;;;;;5014109;28;20437;-82
2022/08/18 11:26:30;;;;;;;10.40;9.67;;;35.80;47.30;;;;;;5013101;28;20420;-81
2022/08/18 11:28:56;;;;;;;12.50;11.60;;;34.80;49.30;;;;;;5012340;28;20481;-83
2022/08/18 11:31:24;;;;;;;12.67;11.57;;;33.60;50.80;;;;;;5007793;28;20449;-82
2022/08/18 11:33:52;;;;;;;13.00;11.90;;;32.50;53.30;;;;;;5005176;28;20439;-84
2022/08/18 11:36:29;;;;;;;11.80;10.43;;;32.00;55.10;;;;;;5007230;28;20448;-83
2022/08/18 11:38:57;;;;;;;11.63;10.63;;;31.80;55.50;;;;;;5005059;28;20863;-82
2022/08/18 11:41:27;;;;;;;11.73;10.73;;;31.70;56.10;;;;;;5017499;28;20489;-81
2022/08/18 11:43:56;;;;;;;12.40;11.50;;;32.00;56.20;;;;;;5017489;28;20442;-81
2022/08/18 11:46:29;;;;;;;10.10;9.33;;;32.40;55.70;;;;;;5016091;28;20548;-84
2022/08/18 11:48:58;;;;;;;12.13;11.23;;;32.40;55.40;;;;;;5011481;28;20434;-84
2022/08/18 11:51:31;;;;;;;11.80;10.90;;;32.40;55.20;;;;;;5016186;28;20442;-84
2022/08/18 11:54:00;;;;;;;12.23;11.23;;;31.70;56.60;;;;;;5019584;28;20510;-82
2022/08/18 11:56:29;;;;;;;11.33;10.53;;;32.40;55.70;;;;;;5016292;28;20849;-82
2022/08/18 11:58:58;;;;;;;11.10;10.40;;;33.20;54.10;;;;;;5009164;28;20434;-83
2022/08/18 12:01:34;;;;;;;11.23;10.33;;;33.80;52.90;;;;;;5013272;28;20447;-82
2022/08/18 12:04:15;;;;;;;10.53;9.83;;;33.90;52.10;;;;;;5014412;28;20564;-83
2022/08/18 12:06:59;;;;;;;10.33;9.60;;;33.70;51.90;;;;;;5033807;28;20469;-80
2022/08/18 12:09:36;;;;;;;9.87;9.17;;;34.80;50.40;;;;;;5036147;28;20476;-82
2022/08/18 12:12:07;;;;;;;10.50;9.60;;;34.60;49.80;;;;;;5017303;28;20442;-84
2022/08/18 12:14:50;;;;;;;11.50;10.60;;;33.90;50.70;;;;;;5006307;28;20448;-84
2022/08/18 12:17:17;;;;;;;12.27;11.27;;;34.30;49.40;;;;;;5012840;28;20497;-83
2022/08/18 12:19:45;;;;;;;10.93;10.13;;;33.10;51.40;;;;;;5032125;28;20428;-84
2022/08/18 12:22:15;;;;;;;10.63;9.83;;;34.10;52.10;;;;;;5011219;28;20504;-84
2022/08/18 12:24:42;;;;;;;10.73;9.90;;;34.90;49.40;;;;;;5009867;28;20449;-85
2022/08/18 12:27:09;;;;;;;9.97;9.30;;;35.30;49.00;;;;;;5006214;28;20473;-84
2022/08/18 12:29:36;;;;;;;10.13;9.13;;;35.70;48.10;;;;;;5001111;28;20482;-83
2022/08/18 12:32:02;;;;;;;10.50;9.53;;;36.60;46.90;;;;;;5009050;28;20471;-82
2022/08/18 12:34:29;;;;;;;9.47;8.87;;;37.70;45.50;;;;;;5002438;28;20470;-82
2022/08/18 12:36:59;;;;;;;11.20;10.43;;;38.50;43.60;;;;;;5003971;28;20478;-83
2022/08/18 12:39:27;;;;;;;10.07;9.30;;;39.80;41.80;;;;;;5005325;28;20438;-83
2022/08/18 12:41:54;;;;;;;9.90;9.20;;;39.20;41.00;;;;;;5006052;28;20457;-82
2022/08/18 12:44:21;;;;;;;9.50;8.80;;;39.50;41.10;;;;;;5010538;28;20437;-83
2022/08/18 12:46:48;;;;;;;10.30;9.50;;;39.70;40.30;;;;;;5004202;28;20528;-81
2022/08/18 12:49:17;;;;;;;9.60;8.80;;;38.90;41.30;;;;;;5007841;28;20448;-83
2022/08/18 12:51:45;;;;;;;11.23;10.33;;;38.90;41.30;;;;;;5015359;28;20441;-83
2022/08/18 12:54:13;;;;;;;10.53;9.60;;;36.50;44.20;;;;;;5015612;28;20481;-83
2022/08/18 12:56:41;;;;;;;11.63;10.73;;;35.30;46.80;;;;;;5028577;28;20418;-82
2022/08/18 12:59:09;;;;;;;12.17;11.20;;;35.90;46.20;;;;;;5036108;28;20445;-82
2022/08/18 13:01:44;;;;;;;10.50;9.70;;;36.80;45.00;;;;;;5026332;28;20430;-82
2022/08/18 13:04:12;;;;;;;9.87;9.20;;;37.80;44.00;;;;;;5032092;28;20432;-84
2022/08/18 13:06:43;;;;;;;11.67;10.77;;;38.80;42.20;;;;;;5027215;28;20425;-87
2022/08/18 13:09:10;;;;;;;11.07;10.27;;;38.40;42.30;;;;;;5018510;28;20444;-83
2022/08/18 13:11:38;;;;;;;10.10;9.20;;;38.50;41.60;;;;;;5022113;28;20436;-82
2022/08/18 13:14:05;;;;;;;10.60;9.80;;;38.00;42.80;;;;;;5018448;28;20457;-85
2022/08/18 13:16:34;;;;;;;10.60;9.80;;;38.10;42.70;;;;;;5008282;28;20501;-84
2022/08/18 13:19:00;;;;;;;10.20;9.40;;;37.60;42.70;;;;;;5013524;28;20449;-82
2022/08/18 13:21:28;;;;;;;10.50;9.43;;;37.60;42.80;;;;;;5008903;28;20447;-83
2022/08/18 13:23:55;;;;;;;9.87;9.07;;;38.30;41.60;;;;;;5008815;28;20535;-82
2022/08/18 13:26:27;;;;;;;9.90;9.10;;;38.30;41.90;;;;;;5009751;28;20446;-82
2022/08/18 13:28:55;;;;;;;9.07;8.47;;;38.60;41.70;;;;;;5047342;22;20502;-88
2022/08/18 13:31:22;;;;;;;10.90;9.93;;;38.80;41.30;;;;;;5063064;28;20513;-88
2022/08/18 13:33:49;;;;;;;9.90;8.90;;;38.80;40.60;;;;;;5091796;28;20434;-88
2022/08/18 13:36:16;;;;;;;9.80;9.10;;;38.40;40.30;;;;;;5071567;28;20441;-88
2022/08/18 13:38:42;;;;;;;8.53;8.03;;;36.60;43.30;;;;;;5072081;28;20488;-88
2022/08/18 13:41:11;;;;;;;9.37;8.57;;;35.70;45.00;;;;;;5059057;28;20455;-88
2022/08/18 13:43:42;;;;;;;9.47;8.67;;;34.80;45.70;;;;;;5055881;28;20480;-88
2022/08/18 13:46:23;;;;;;;10.03;9.03;;;33.60;47.60;;;;;;5054888;28;20550;-93
2022/08/18 13:49:01;;;;;;;9.07;8.47;;;33.80;48.50;;;;;;5053950;28;20473;-89
2022/08/18 13:51:30;;;;;;;9.13;8.43;;;34.60;47.50;;;;;;5072820;28;20989;-89
2022/08/18 13:53:59;;;;;;;8.80;8.10;;;35.00;46.50;;;;;;5059301;28;20420;-90
2022/08/18 13:56:26;;;;;;;8.53;7.83;;;35.70;45.60;;;;;;5079791;28;20440;-89
2022/08/18 13:58:53;;;;;;;8.27;7.73;;;36.50;43.60;;;;;;5074850;28;20581;-89
2022/08/18 14:01:30;;;;;;;8.37;7.67;;;36.50;43.90;;;;;;5056883;28;20444;-89
2022/08/18 14:03:57;;;;;;;7.73;7.23;;;37.30;42.70;;;;;;5076749;28;20428;-89
2022/08/18 14:06:26;;;;;;;8.73;8.03;;;37.80;41.50;;;;;;5074028;28;20499;-90
2022/08/18 14:08:53;;;;;;;8.43;7.83;;;37.70;41.40;;;;;;5070885;28;20468;-88
2022/08/18 14:11:26;;;;;;;8.43;7.83;;;37.90;41.50;;;;;;5055606;28;20480;-88
2022/08/18 14:13:53;;;;;;;8.63;7.93;;;38.40;41.20;;;;;;5057085;28;20959;-88
2022/08/18 14:16:22;;;;;;;7.37;6.90;;;38.00;41.10;;;;;;5062497;28;20537;-88
2022/08/18 14:27:18;;;;;;;8.00;7.50;;;35.70;44.80;;;;;;5064058;28;20431;-89
2022/08/18 14:29:47;;;;;;;8.80;8.10;;;36.50;43.80;;;;;;5055885;28;20491;-89
2022/08/18 14:32:32;;;;;;;9.07;8.40;;;36.70;42.60;;;;;;5055016;28;20534;-89
2022/08/18 14:35:05;;;;;;;7.67;7.03;;;37.00;42.60;;;;;;5055155;28;20550;-89
2022/08/18 14:37:32;;;;;;;8.73;8.13;;;36.70;42.90;;;;;;5052574;28;20959;-89
2022/08/18 14:39:59;;;;;;;8.53;7.87;;;36.20;43.30;;;;;;5056220;28;20466;-88
2022/08/18 14:42:26;;;;;;;9.10;8.50;;;35.40;44.50;;;;;;5055954;28;20537;-88
2022/08/18 14:44:54;;;;;;;8.53;7.93;;;34.70;45.50;;;;;;5044960;28;20448;-89
2022/08/18 14:47:27;;;;;;;8.70;8.10;;;34.10;46.70;;;;;;5059150;28;20543;-90
2022/08/18 14:49:53;;;;;;;9.80;9.10;;;33.50;47.70;;;;;;5047304;28;20514;-89
2022/08/18 14:52:21;;;;;;;7.67;7.07;;;32.40;48.90;;;;;;5045800;28;20438;-88
2022/08/18 14:55:01;;;;;;;9.10;8.30;;;31.70;51.00;;;;;;5048251;28;20443;-90
2022/08/18 14:57:28;;;;;;;8.53;7.87;;;31.50;52.00;;;;;;5061774;28;20820;-88
2022/08/18 14:59:58;;;;;;;8.93;8.23;;;31.50;51.70;;;;;;5055816;28;20457;-88
2022/08/18 15:02:26;;;;;;;8.30;7.70;;;31.40;51.70;;;;;;5056637;28;20870;-89
2022/08/18 15:05:24;;;;;;;10.27;9.47;;;31.50;51.80;;;;;;5057526;28;20455;-89
2022/08/18 15:07:54;;;;;;;9.47;8.53;;;31.50;51.60;;;;;;5055183;28;20465;-89
2022/08/18 15:10:25;;;;;;;9.03;8.33;;;31.70;51.30;;;;;;5053578;28;20486;-89
2022/08/18 15:12:52;;;;;;;9.03;8.23;;;31.70;51.10;;;;;;5056378;28;20460;-89
2022/08/18 15:15:19;;;;;;;9.10;8.30;;;31.80;50.90;;;;;;5057794;28;20433;-89
2022/08/18 15:17:47;;;;;;;8.00;7.40;;;31.70;51.00;;;;;;5058170;28;20445;-89
2022/08/18 15:20:20;;;;;;;9.40;8.60;;;31.50;51.50;;;;;;5058697;28;20488;-89
2022/08/18 15:25:47;;;;;;;9.07;8.37;;;31.20;52.40;;;;;;5062487;28;20430;-89
2022/08/18 15:28:50;;;;;;;;;;;;;;;;;;;;;
2022/08/18 15:31:23;;;;;;;10.37;9.57;;;30.80;53.00;;;;;;5056045;28;20862;-89
2022/08/18 15:33:54;;;;;;;10.30;9.60;;;30.70;53.30;;;;;;5055243;28;20458;-89
2022/08/18 15:36:27;;;;;;;9.60;8.90;;;30.70;53.70;;;;;;5057896;28;20506;-90
2022/08/18 15:39:24;;;;;;;8.80;8.10;;;30.70;53.90;;;;;;5067718;28;20479;-89
2022/08/18 15:42:01;;;;;;;9.30;8.60;;;30.60;53.80;;;;;;5016653;28;20497;-87
2022/08/18 15:44:32;;;;;;;9.73;8.90;;;30.50;53.70;;;;;;5065920;28;20450;-89
2022/08/18 15:47:00;;;;;;;9.20;8.37;;;30.50;53.70;;;;;;5058482;28;20489;-89
2022/08/18 15:49:29;;;;;;;10.57;9.67;;;30.50;54.00;;;;;;5066802;28;20454;-89
2022/08/18 15:51:55;;;;;;;10.57;8.83;;;30.40;54.40;;;;;;5069281;28;20492;-88
2022/08/18 15:54:22;;;;;;;9.37;8.67;;;30.20;54.50;;;;;;5060267;28;20453;-88
2022/08/18 15:57:05;;;;;;;9.83;9.00;;;30.20;54.70;;;;;;5069852;28;20426;-88
2022/08/18 15:59:48;;;;;;;10.20;9.33;;;30.10;55.00;;;;;;5075225;28;20462;-88
2022/08/18 16:02:17;;;;;;;10.13;9.33;;;30.10;55.10;;;;;;5074659;28;20424;-88
2022/08/18 16:04:46;;;;;;;9.10;8.50;;;30.10;55.20;;;;;;5076533;28;20447;-89
2022/08/18 16:07:31;;;;;;;9.33;8.63;;;30.10;55.40;;;;;;5075584;28;20526;-89
2022/08/18 16:10:11;;;;;;;9.40;8.70;;;30.00;55.50;;;;;;5059893;28;20478;-84
2022/08/18 16:12:51;;;;;;;10.37;9.30;;;29.90;56.20;;;;;;5056122;28;20837;-85
2022/08/18 16:15:24;;;;;;;9.90;9.20;;;29.90;56.30;;;;;;5070763;28;20437;-84
2022/08/18 16:18:11;;;;;;;8.90;8.30;;;29.90;56.40;;;;;;5070162;28;20470;-85
2022/08/18 16:20:57;;;;;;;9.23;8.53;;;29.80;56.30;;;;;;5073420;28;20500;-83
2022/08/18 16:23:44;;;;;;;9.30;8.50;;;29.80;56.90;;;;;;5080237;28;20440;-84
2022/08/18 16:26:25;;;;;;;9.53;8.83;;;29.60;56.60;;;;;;5075247;28;20447;-84
2022/08/18 16:29:20;;;;;;;9.63;8.93;;;29.60;56.90;;;;;;5068873;28;20483;-83
2022/08/18 16:31:55;;;;;;;9.20;8.43;;;29.40;57.00;;;;;;5025081;28;20495;-85
2022/08/18 16:34:33;;;;;;;9.10;8.50;;;29.30;57.40;;;;;;5065263;28;20467;-84
2022/08/18 16:37:35;;;;;;;9.67;8.87;;;29.10;57.80;;;;;;5048878;28;20446;-84
2022/08/18 16:43:02;;;;;;;10.60;9.60;;;28.90;58.00;;;;;;5052434;28;20821;-82
2022/08/18 16:54:15;;;;;;;8.67;7.87;;;28.70;57.80;;;;;;5153089;27;20509;-82
2022/08/18 16:56:48;;;;;;;8.60;8.00;;;28.50;58.10;;;;;;5152900;27;20441;-84
2022/08/18 17:05:18;;;;;;;9.67;8.97;;;28.10;61.30;;;;;;5098909;28;20427;-83
2022/08/18 17:08:00;;;;;;;10.17;9.27;;;28.00;63.40;;;;;;5154605;27;20447;-83
2022/08/18 17:10:36;;;;;;;10.17;9.33;;;27.80;64.70;;;;;;5153370;27;20560;-83
2022/08/18 17:13:16;;;;;;;10.23;9.33;;;27.70;65.70;;;;;;5160369;27;20492;-84
2022/08/18 17:15:50;;;;;;;11.43;10.53;;;27.70;66.70;;;;;;5149968;27;20772;-84
2022/08/18 17:18:28;;;;;;;11.43;10.47;;;27.60;67.70;;;;;;5150187;27;20466;-85
2022/08/18 17:21:05;;;;;;;11.50;10.50;;;27.50;68.50;;;;;;5156007;27;20450;-84
2022/08/18 17:23:47;;;;;;;12.30;11.40;;;27.40;69.40;;;;;;5149670;27;20463;-83
2022/08/18 17:29:31;;;;;;;10.87;9.53;;;27.30;70.70;;;;;;5149643;27;20468;-84
2022/08/18 17:35:19;;;;;;;11.70;10.80;;;27.10;71.70;;;;;;5146914;27;20439;-83
2022/08/18 17:37:58;;;;;;;10.43;9.63;;;27.10;72.20;;;;;;5159304;27;20436;-83
2022/08/18 17:43:25;;;;;;;11.47;10.37;;;27.10;72.70;;;;;;5151342;27;20427;-83
2022/08/18 17:46:00;;;;;;;11.20;10.30;;;27.10;72.90;;;;;;5153501;27;20920;-82
2022/08/18 17:48:41;;;;;;;13.77;10.70;;;27.00;73.10;;;;;;5152259;27;20548;-83
2022/08/18 17:51:34;;;;;;;12.20;11.30;;;26.90;73.40;;;;;;5158309;27;20438;-82
2022/08/18 17:54:10;;;;;;;11.60;10.70;;;26.80;73.90;;;;;;5156555;27;20469;-83
2022/08/18 17:56:44;;;;;;;11.70;10.73;;;26.80;74.50;;;;;;5154628;27;20444;-83
2022/08/18 17:59:24;;;;;;;12.33;11.33;;;26.80;74.70;;;;;;5150333;27;20473;-84
2022/08/18 18:02:10;;;;;;;12.03;11.13;;;26.80;74.80;;;;;;5153961;27;21012;-84
2022/08/18 18:04:41;;;;;;;11.70;10.80;;;26.80;74.90;;;;;;5135579;27;20440;-85
2022/08/18 18:07:32;;;;;;;12.37;11.07;;;26.70;74.90;;;;;;5137535;27;21042;-83
2022/08/18 18:10:26;;;;;;;11.70;10.80;;;26.70;74.80;;;;;;5156222;27;20441;-83
2022/08/18 18:13:11;;;;;;;12.80;11.90;;;26.70;74.80;;;;;;5147985;27;20507;-84
2022/08/18 18:16:43;;;;;;;12.33;11.40;;;26.60;75.00;;;;;;5134118;27;20469;-84
2022/08/18 18:19:32;;;;;;;14.37;13.27;;;26.60;75.40;;;;;;5134883;27;20463;-83
2022/08/18 18:22:19;;;;;;;14.47;13.37;;;26.50;76.10;;;;;;5142684;27;20479;-83
2022/08/18 18:25:06;;;;;;;15.80;14.60;;;26.40;76.70;;;;;;5151549;27;20449;-83
2022/08/18 18:27:46;;;;;;;15.60;14.40;;;26.30;77.60;;;;;;5131650;27;20846;-83
2022/08/18 18:30:35;;;;;;;17.37;16.00;;;26.20;78.00;;;;;;5131043;27;20552;-83
2022/08/18 18:33:24;;;;;;;15.40;14.20;;;26.10;78.50;;;;;;5133268;27;20476;-83
2022/08/18 18:39:06;;;;;;;16.57;15.30;;;26.00;79.30;;;;;;5159485;22;20521;-83
2022/08/18 18:41:39;;;;;;;16.53;15.20;;;25.90;79.50;;;;;;5079265;28;20483;-83
2022/08/18 18:44:36;;;;;;;15.00;13.97;;;25.90;79.70;;;;;;5079186;28;20441;-83
2022/08/18 18:47:17;;;;;;;17.40;16.03;;;25.90;80.00;;;;;;5087572;28;20443;-83
2022/08/18 18:50:13;;;;;;;15.60;14.50;;;25.90;79.90;;;;;;5090824;28;20474;-83
2022/08/18 18:52:55;;;;;;;16.17;14.73;;;25.90;80.00;;;;;;5092542;28;20469;-83
2022/08/18 18:55:41;;;;;;;16.00;14.80;;;25.80;80.20;;;;;;5085753;28;20443;-82
2022/08/18 18:58:35;;;;;;;15.20;14.13;;;25.80;80.40;;;;;;5085522;28;20443;-83
2022/08/18 19:04:27;;;;;;;16.10;14.90;;;25.80;80.60;;;;;;5090217;28;20435;-83
2022/08/18 19:07:19;;;;;;;17.53;15.70;;;25.70;80.60;;;;;;5104954;28;20468;-83
2022/08/18 19:13:29;;;;;;;18.77;17.27;;;25.60;81.50;;;;;;5099602;28;20534;-83